sensor_id;sensor_type;location;lat;lon;timestamp;pressure;altitude;pressure_sealevel;temperature;humidity
10706;BME280;5404;42.656;23.336;2024-03-02T00:02:07;94222.03;;;6.90;75.50
10706;BME280;5404;42.656;23.336;2024-03-02T00:04:33;94209.66;;;6.93;74.70
10706;BME280;5404;42.656;23.336;2024-03-02T00:06:58;94215.47;;;6.91;74.72
10706;BME280;5404;42.656;23.336;2024-03-02T00:09:24;94216.59;;;6.94;74.49
10706;BME280;5404;42.656;23.336;2024-03-02T00:11:53;94222.03;;;6.94;74.62
10706;BME280;5404;42.656;23.336;2024-03-02T00:14:18;94186.19;;;6.76;74.93
10706;BME280;5404;42.656;23.336;2024-03-02T00:16:44;94208.09;;;6.92;75.06
10706;BME280;5404;42.656;23.336;2024-03-02T00:19:09;94210.41;;;6.93;74.84
10706;BME280;5404;42.656;23.336;2024-03-02T00:21:35;94217.00;;;6.96;74.50
10706;BME280;5404;42.656;23.336;2024-03-02T00:24:12;94207.28;;;6.98;75.13
10706;BME280;5404;42.656;23.336;2024-03-02T00:26:45;94189.84;;;6.99;74.16
10706;BME280;5404;42.656;23.336;2024-03-02T00:29:11;94204.97;;;6.97;74.44
10706;BME280;5404;42.656;23.336;2024-03-02T00:31:40;94204.22;;;6.93;74.74
10706;BME280;5404;42.656;23.336;2024-03-02T00:34:06;94200.34;;;6.94;75.02
10706;BME280;5404;42.656;23.336;2024-03-02T00:36:31;94197.28;;;6.92;74.87
10706;BME280;5404;42.656;23.336;2024-03-02T00:38:57;94197.28;;;6.92;75.43
10706;BME280;5404;42.656;23.336;2024-03-02T00:41:32;94193.84;;;6.88;75.48
10706;BME280;5404;42.656;23.336;2024-03-02T00:44:01;94197.22;;;6.99;74.67
10706;BME280;5404;42.656;23.336;2024-03-02T00:46:33;94194.16;;;6.93;74.76
10706;BME280;5404;42.656;23.336;2024-03-02T00:49:00;94188.00;;;6.89;74.60
10706;BME280;5404;42.656;23.336;2024-03-02T00:51:29;94185.66;;;6.91;74.96
10706;BME280;5404;42.656;23.336;2024-03-02T00:53:58;94193.41;;;6.93;75.03
10706;BME280;5404;42.656;23.336;2024-03-02T00:56:24;94185.59;;;7.02;74.73
10706;BME280;5404;42.656;23.336;2024-03-02T00:58:50;94185.22;;;7.00;74.18
10706;BME280;5404;42.656;23.336;2024-03-02T01:01:16;94198.75;;;7.00;74.46
10706;BME280;5404;42.656;23.336;2024-03-02T01:03:41;94194.13;;;6.97;74.90
10706;BME280;5404;42.656;23.336;2024-03-02T01:06:07;94204.13;;;7.03;73.93
10706;BME280;5404;42.656;23.336;2024-03-02T01:08:34;94188.69;;;7.00;73.88
10706;BME280;5404;42.656;23.336;2024-03-02T01:11:00;94192.50;;;7.06;73.83
10706;BME280;5404;42.656;23.336;2024-03-02T01:13:25;94187.06;;;7.10;74.05
10706;BME280;5404;42.656;23.336;2024-03-02T01:15:51;94190.03;;;7.19;73.43
10706;BME280;5404;42.656;23.336;2024-03-02T01:18:16;94186.16;;;7.20;73.23
10706;BME280;5404;42.656;23.336;2024-03-02T01:20:42;94169.88;;;7.24;73.12
10706;BME280;5404;42.656;23.336;2024-03-02T01:23:07;94181.00;;;7.33;72.47
10706;BME280;5404;42.656;23.336;2024-03-02T01:25:33;94174.81;;;7.32;72.76
10706;BME280;5404;42.656;23.336;2024-03-02T01:27:58;94164.38;;;7.31;72.85
10706;BME280;5404;42.656;23.336;2024-03-02T01:30:24;94170.97;;;7.30;73.40
10706;BME280;5404;42.656;23.336;2024-03-02T01:32:49;94168.34;;;7.23;73.79
10706;BME280;5404;42.656;23.336;2024-03-02T01:35:14;94163.63;;;7.30;73.10
10706;BME280;5404;42.656;23.336;2024-03-02T01:37:41;94134.00;;;7.13;73.65
10706;BME280;5404;42.656;23.336;2024-03-02T01:40:07;94158.28;;;7.20;73.43
10706;BME280;5404;42.656;23.336;2024-03-02T01:42:36;94171.81;;;7.23;73.61
10706;BME280;5404;42.656;23.336;2024-03-02T01:45:04;94160.97;;;7.23;73.96
10706;BME280;5404;42.656;23.336;2024-03-02T01:47:29;94166.81;;;7.18;74.40
10706;BME280;5404;42.656;23.336;2024-03-02T01:49:55;94169.91;;;7.20;74.12
10706;BME280;5404;42.656;23.336;2024-03-02T01:52:20;94136.09;;;6.98;74.24
10706;BME280;5404;42.656;23.336;2024-03-02T01:54:46;94160.31;;;7.12;74.75
10706;BME280;5404;42.656;23.336;2024-03-02T01:57:11;94159.13;;;7.17;74.78
10706;BME280;5404;42.656;23.336;2024-03-02T01:59:37;94151.47;;;7.08;75.14
10706;BME280;5404;42.656;23.336;2024-03-02T02:02:02;94159.16;;;7.13;75.26
10706;BME280;5404;42.656;23.336;2024-03-02T02:04:28;94157.97;;;7.14;74.62
10706;BME280;5404;42.656;23.336;2024-03-02T02:06:54;94151.91;;;7.03;74.68
10706;BME280;5404;42.656;23.336;2024-03-02T02:09:19;94164.56;;;7.13;75.04
10706;BME280;5404;42.656;23.336;2024-03-02T02:11:45;94154.56;;;7.10;75.11
10706;BME280;5404;42.656;23.336;2024-03-02T02:14:10;94159.16;;;7.13;74.54
10706;BME280;5404;42.656;23.336;2024-03-02T02:16:36;94141.66;;;7.21;73.99
10706;BME280;5404;42.656;23.336;2024-03-02T02:19:02;94146.75;;;7.12;74.28
10706;BME280;5404;42.656;23.336;2024-03-02T02:21:28;94149.00;;;7.21;74.42
10706;BME280;5404;42.656;23.336;2024-03-02T02:23:53;94147.50;;;7.16;74.65
10706;BME280;5404;42.656;23.336;2024-03-02T02:26:19;94149.16;;;7.06;75.38
10706;BME280;5404;42.656;23.336;2024-03-02T02:28:44;94162.00;;;6.99;75.46
10706;BME280;5404;42.656;23.336;2024-03-02T02:31:15;94151.22;;;6.95;75.69
10706;BME280;5404;42.656;23.336;2024-03-02T02:33:42;94156.88;;;7.08;75.86
10706;BME280;5404;42.656;23.336;2024-03-02T02:36:08;94156.97;;;6.97;75.84
10706;BME280;5404;42.656;23.336;2024-03-02T02:38:38;94153.47;;;7.00;75.39
10706;BME280;5404;42.656;23.336;2024-03-02T02:41:04;94163.47;;;7.07;75.41
10706;BME280;5404;42.656;23.336;2024-03-02T02:43:30;94152.72;;;7.00;75.59
10706;BME280;5404;42.656;23.336;2024-03-02T02:45:55;94156.59;;;6.99;75.73
10706;BME280;5404;42.656;23.336;2024-03-02T02:48:20;94162.78;;;6.99;75.55
10706;BME280;5404;42.656;23.336;2024-03-02T02:50:46;94164.34;;;6.97;75.66
10706;BME280;5404;42.656;23.336;2024-03-02T02:53:11;94157.09;;;6.87;75.71
10706;BME280;5404;42.656;23.336;2024-03-02T02:55:39;94160.19;;;6.89;76.41
10706;BME280;5404;42.656;23.336;2024-03-02T02:58:11;94155.47;;;6.93;76.44
10706;BME280;5404;42.656;23.336;2024-03-02T03:00:36;94158.50;;;7.02;76.26
10706;BME280;5404;42.656;23.336;2024-03-02T03:03:02;94157.03;;;6.94;76.63
10706;BME280;5404;42.656;23.336;2024-03-02T03:05:28;94162.84;;;6.92;76.83
10706;BME280;5404;42.656;23.336;2024-03-02T03:07:54;94156.28;;;6.90;76.48
10706;BME280;5404;42.656;23.336;2024-03-02T03:10:19;94161.16;;;7.05;75.79
10706;BME280;5404;42.656;23.336;2024-03-02T03:12:47;94162.44;;;6.94;76.64
10706;BME280;5404;42.656;23.336;2024-03-02T03:15:13;94129.06;;;6.66;76.98
10706;BME280;5404;42.656;23.336;2024-03-02T03:17:39;94155.16;;;6.87;77.21
10706;BME280;5404;42.656;23.336;2024-03-02T03:20:06;94156.00;;;6.81;76.92
10706;BME280;5404;42.656;23.336;2024-03-02T03:22:35;94157.88;;;6.84;77.57
10706;BME280;5404;42.656;23.336;2024-03-02T03:25:01;94165.31;;;6.76;78.52
10706;BME280;5404;42.656;23.336;2024-03-02T03:27:26;94159.13;;;6.76;77.82
10706;BME280;5404;42.656;23.336;2024-03-02T03:29:52;94164.94;;;6.74;78.15
10706;BME280;5404;42.656;23.336;2024-03-02T03:32:17;94168.81;;;6.73;78.23
10706;BME280;5404;42.656;23.336;2024-03-02T03:34:43;94164.19;;;6.74;78.31
10706;BME280;5404;42.656;23.336;2024-03-02T03:37:08;94159.47;;;6.81;78.29
10706;BME280;5404;42.656;23.336;2024-03-02T03:39:35;94164.53;;;6.76;78.55
10706;BME280;5404;42.656;23.336;2024-03-02T03:42:03;94162.50;;;6.87;77.95
10706;BME280;5404;42.656;23.336;2024-03-02T03:44:28;94167.25;;;6.76;78.46
10706;BME280;5404;42.656;23.336;2024-03-02T03:46:54;94164.19;;;6.70;78.43
10706;BME280;5404;42.656;23.336;2024-03-02T03:49:19;94166.88;;;6.74;78.71
10706;BME280;5404;42.656;23.336;2024-03-02T03:51:45;94164.56;;;6.72;78.44
10706;BME280;5404;42.656;23.336;2024-03-02T03:54:10;94160.38;;;6.67;78.83
10706;BME280;5404;42.656;23.336;2024-03-02T03:56:36;94161.88;;;6.68;78.53
10706;BME280;5404;42.656;23.336;2024-03-02T03:59:02;94160.00;;;6.65;79.14
10706;BME280;5404;42.656;23.336;2024-03-02T04:01:27;94164.19;;;6.74;78.85
10706;BME280;5404;42.656;23.336;2024-03-02T04:03:53;94163.03;;;6.71;78.71
10706;BME280;5404;42.656;23.336;2024-03-02T04:06:18;94153.44;;;6.63;79.12
10706;BME280;5404;42.656;23.336;2024-03-02T04:08:44;94162.72;;;6.62;79.36
10706;BME280;5404;42.656;23.336;2024-03-02T04:11:10;94162.75;;;6.58;79.25
10706;BME280;5404;42.656;23.336;2024-03-02T04:13:36;94151.41;;;6.29;80.18
10706;BME280;5404;42.656;23.336;2024-03-02T04:16:01;94166.34;;;6.45;80.04
10706;BME280;5404;42.656;23.336;2024-03-02T04:18:29;94165.53;;;6.51;80.35
10706;BME280;5404;42.656;23.336;2024-03-02T04:20:54;94162.88;;;6.44;80.29
10706;BME280;5404;42.656;23.336;2024-03-02T04:23:19;94159.75;;;6.49;80.94
10706;BME280;5404;42.656;23.336;2024-03-02T04:25:45;94156.59;;;6.54;80.46
10706;BME280;5404;42.656;23.336;2024-03-02T04:28:10;94148.28;;;6.31;80.45
10706;BME280;5404;42.656;23.336;2024-03-02T04:30:37;94170.56;;;6.53;80.43
10706;BME280;5404;42.656;23.336;2024-03-02T04:33:03;94169.13;;;6.34;81.31
10706;BME280;5404;42.656;23.336;2024-03-02T04:35:29;94167.56;;;6.37;80.77
10706;BME280;5404;42.656;23.336;2024-03-02T04:37:54;94170.63;;;6.42;80.72
10706;BME280;5404;42.656;23.336;2024-03-02T04:40:19;94172.50;;;6.49;80.75
10706;BME280;5404;42.656;23.336;2024-03-02T04:42:45;94165.97;;;6.46;80.69
10706;BME280;5404;42.656;23.336;2024-03-02T04:45:10;94172.53;;;6.45;80.63
10706;BME280;5404;42.656;23.336;2024-03-02T04:47:36;94172.94;;;6.40;81.25
10706;BME280;5404;42.656;23.336;2024-03-02T04:50:01;94163.38;;;6.32;80.61
10706;BME280;5404;42.656;23.336;2024-03-02T04:52:27;94171.88;;;6.31;81.54
10706;BME280;5404;42.656;23.336;2024-03-02T04:54:52;94172.66;;;6.27;81.85
10706;BME280;5404;42.656;23.336;2024-03-02T04:57:50;94176.91;;;6.32;82.39
10706;BME280;5404;42.656;23.336;2024-03-02T05:00:16;94180.00;;;6.31;83.08
10706;BME280;5404;42.656;23.336;2024-03-02T05:02:42;94180.38;;;6.25;83.29
10706;BME280;5404;42.656;23.336;2024-03-02T05:05:08;94172.31;;;6.18;83.60
10706;BME280;5404;42.656;23.336;2024-03-02T05:07:33;94181.63;;;6.14;83.81
10706;BME280;5404;42.656;23.336;2024-03-02T05:09:59;94177.81;;;6.08;84.53
10706;BME280;5404;42.656;23.336;2024-03-02T05:12:24;94177.09;;;6.04;84.76
10706;BME280;5404;42.656;23.336;2024-03-02T05:15:15;94188.56;;;6.18;84.91
10706;BME280;5404;42.656;23.336;2024-03-02T05:17:41;94171.25;;;6.09;85.57
10706;BME280;5404;42.656;23.336;2024-03-02T05:20:08;94193.22;;;6.18;85.55
10706;BME280;5404;42.656;23.336;2024-03-02T05:22:34;94197.09;;;6.17;85.80
10706;BME280;5404;42.656;23.336;2024-03-02T05:25:00;94204.44;;;6.16;85.70
10706;BME280;5404;42.656;23.336;2024-03-02T05:27:26;94206.38;;;6.16;86.04
10706;BME280;5404;42.656;23.336;2024-03-02T05:29:52;94203.31;;;6.10;85.97
10706;BME280;5404;42.656;23.336;2024-03-02T05:32:17;94184.47;;;5.96;85.76
10706;BME280;5404;42.656;23.336;2024-03-02T05:34:43;94204.84;;;6.08;86.36
10706;BME280;5404;42.656;23.336;2024-03-02T05:37:08;94213.75;;;6.05;86.44
10706;BME280;5404;42.656;23.336;2024-03-02T05:39:33;94219.16;;;6.05;86.32
10706;BME280;5404;42.656;23.336;2024-03-02T05:41:59;94221.09;;;6.04;86.72
10706;BME280;5404;42.656;23.336;2024-03-02T05:44:24;94219.97;;;6.02;86.80
10706;BME280;5404;42.656;23.336;2024-03-02T05:46:50;94221.88;;;6.05;87.29
10706;BME280;5404;42.656;23.336;2024-03-02T05:49:15;94217.66;;;6.04;87.43
10706;BME280;5404;42.656;23.336;2024-03-02T05:51:40;94233.50;;;6.02;87.39
10706;BME280;5404;42.656;23.336;2024-03-02T05:54:06;94223.78;;;6.04;87.45
10706;BME280;5404;42.656;23.336;2024-03-02T05:56:32;94223.00;;;6.11;87.85
10706;BME280;5404;42.656;23.336;2024-03-02T05:58:58;94216.50;;;6.01;88.12
10706;BME280;5404;42.656;23.336;2024-03-02T06:01:44;94215.72;;;6.01;88.31
10706;BME280;5404;42.656;23.336;2024-03-02T06:04:10;94206.84;;;6.00;88.39
10706;BME280;5404;42.656;23.336;2024-03-02T06:06:36;94224.06;;;6.27;88.69
10706;BME280;5404;42.656;23.336;2024-03-02T06:09:02;94225.22;;;6.30;88.70
10706;BME280;5404;42.656;23.336;2024-03-02T06:11:30;94227.84;;;6.41;89.08
10706;BME280;5404;42.656;23.336;2024-03-02T06:13:56;94225.91;;;6.41;88.93
10706;BME280;5404;42.656;23.336;2024-03-02T06:16:21;94235.56;;;6.42;89.41
10706;BME280;5404;42.656;23.336;2024-03-02T06:18:47;94225.94;;;6.34;88.95
10706;BME280;5404;42.656;23.336;2024-03-02T06:21:12;94224.34;;;6.40;89.07
10706;BME280;5404;42.656;23.336;2024-03-02T06:23:37;94222.41;;;6.44;88.89
10706;BME280;5404;42.656;23.336;2024-03-02T06:26:03;94232.91;;;6.35;88.54
10706;BME280;5404;42.656;23.336;2024-03-02T06:28:28;94230.25;;;6.28;88.05
10706;BME280;5404;42.656;23.336;2024-03-02T06:30:54;94232.19;;;6.27;88.39
10706;BME280;5404;42.656;23.336;2024-03-02T06:33:19;94237.97;;;6.26;88.17
10706;BME280;5404;42.656;23.336;2024-03-02T06:35:45;94234.09;;;6.27;87.80
10706;BME280;5404;42.656;23.336;2024-03-02T06:38:10;94239.94;;;6.22;87.99
10706;BME280;5404;42.656;23.336;2024-03-02T06:40:36;94239.94;;;6.22;87.84
10706;BME280;5404;42.656;23.336;2024-03-02T06:43:03;94238.78;;;6.19;87.56
10706;BME280;5404;42.656;23.336;2024-03-02T06:45:29;94244.56;;;6.25;87.33
10706;BME280;5404;42.656;23.336;2024-03-02T06:47:55;94242.66;;;6.22;87.63
10706;BME280;5404;42.656;23.336;2024-03-02T06:50:21;94211.84;;;5.98;87.30
10706;BME280;5404;42.656;23.336;2024-03-02T06:52:47;94244.19;;;6.23;87.53
10706;BME280;5404;42.656;23.336;2024-03-02T06:55:12;94248.78;;;6.26;87.53
10706;BME280;5404;42.656;23.336;2024-03-02T06:57:38;94240.69;;;6.26;87.47
10706;BME280;5404;42.656;23.336;2024-03-02T07:00:03;94245.31;;;6.29;87.63
10706;BME280;5404;42.656;23.336;2024-03-02T07:02:31;94241.78;;;6.36;87.58
10706;BME280;5404;42.656;23.336;2024-03-02T07:04:57;94243.72;;;6.35;87.17
10706;BME280;5404;42.656;23.336;2024-03-02T07:07:23;94238.69;;;6.37;87.25
10706;BME280;5404;42.656;23.336;2024-03-02T07:09:48;94251.75;;;6.49;87.04
10706;BME280;5404;42.656;23.336;2024-03-02T07:12:14;94247.53;;;6.45;87.26
10706;BME280;5404;42.656;23.336;2024-03-02T07:14:39;94254.03;;;6.54;86.14
10706;BME280;5404;42.656;23.336;2024-03-02T07:17:23;94256.00;;;6.47;85.53
10706;BME280;5404;42.656;23.336;2024-03-02T07:19:49;94248.66;;;6.47;85.63
10706;BME280;5404;42.656;23.336;2024-03-02T07:22:14;94249.47;;;6.44;85.44
10706;BME280;5404;42.656;23.336;2024-03-02T07:24:43;94256.81;;;6.40;85.55
10706;BME280;5404;42.656;23.336;2024-03-02T07:27:09;94252.19;;;6.44;85.80
10706;BME280;5404;42.656;23.336;2024-03-02T07:29:35;94259.53;;;6.40;85.23
10706;BME280;5404;42.656;23.336;2024-03-02T07:32:01;94255.31;;;6.39;85.34
10706;BME280;5404;42.656;23.336;2024-03-02T07:34:27;94264.16;;;6.43;84.77
10706;BME280;5404;42.656;23.336;2024-03-02T07:36:53;94263.78;;;6.41;84.50
10706;BME280;5404;42.656;23.336;2024-03-02T07:39:18;94256.44;;;6.45;84.67
10706;BME280;5404;42.656;23.336;2024-03-02T07:41:45;94268.03;;;6.46;84.01
10706;BME280;5404;42.656;23.336;2024-03-02T07:44:11;94264.16;;;6.43;84.27
10706;BME280;5404;42.656;23.336;2024-03-02T07:46:40;94266.06;;;6.50;84.33
10706;BME280;5404;42.656;23.336;2024-03-02T07:49:06;94268.31;;;6.58;84.72
10706;BME280;5404;42.656;23.336;2024-03-02T07:51:31;94275.59;;;6.68;84.78
10706;BME280;5404;42.656;23.336;2024-03-02T07:53:56;94274.47;;;6.62;84.51
10706;BME280;5404;42.656;23.336;2024-03-02T07:56:22;94274.91;;;6.57;84.54
10706;BME280;5404;42.656;23.336;2024-03-02T07:58:48;94281.84;;;6.58;84.79
10706;BME280;5404;42.656;23.336;2024-03-02T08:01:14;94257.16;;;6.49;84.59
10706;BME280;5404;42.656;23.336;2024-03-02T08:03:40;94264.41;;;6.66;84.34
10706;BME280;5404;42.656;23.336;2024-03-02T08:06:06;94280.28;;;6.64;84.00
10706;BME280;5404;42.656;23.336;2024-03-02T08:08:31;94282.09;;;6.82;83.63
10706;BME280;5404;42.656;23.336;2024-03-02T08:10:56;94291.81;;;6.72;84.10
10706;BME280;5404;42.656;23.336;2024-03-02T08:13:22;94288.78;;;6.66;84.31
10706;BME280;5404;42.656;23.336;2024-03-02T08:15:47;94288.00;;;6.62;83.65
10706;BME280;5404;42.656;23.336;2024-03-02T08:18:13;94288.00;;;6.66;84.58
10706;BME280;5404;42.656;23.336;2024-03-02T08:20:38;94287.19;;;6.73;84.40
10706;BME280;5404;42.656;23.336;2024-03-02T08:23:04;94282.09;;;6.78;84.40
10706;BME280;5404;42.656;23.336;2024-03-02T08:25:30;94288.31;;;6.75;84.13
10706;BME280;5404;42.656;23.336;2024-03-02T08:27:56;94287.94;;;6.73;83.38
10706;BME280;5404;42.656;23.336;2024-03-02T08:30:22;94288.25;;;6.82;83.60
10706;BME280;5404;42.656;23.336;2024-03-02T08:32:47;94284.38;;;6.87;83.67
10706;BME280;5404;42.656;23.336;2024-03-02T08:35:13;94280.00;;;7.00;83.33
10706;BME280;5404;42.656;23.336;2024-03-02T08:37:42;94276.13;;;7.01;82.77
10706;BME280;5404;42.656;23.336;2024-03-02T08:40:09;94283.31;;;7.18;83.09
10706;BME280;5404;42.656;23.336;2024-03-02T08:42:34;94249.78;;;7.05;81.86
10706;BME280;5404;42.656;23.336;2024-03-02T08:45:00;94278.94;;;7.35;81.31
10706;BME280;5404;42.656;23.336;2024-03-02T08:47:28;94277.94;;;7.56;81.06
10706;BME280;5404;42.656;23.336;2024-03-02T08:49:54;94283.41;;;7.52;80.90
10706;BME280;5404;42.656;23.336;2024-03-02T08:52:19;94277.56;;;7.57;80.97
10706;BME280;5404;42.656;23.336;2024-03-02T08:54:44;94282.06;;;7.71;79.46
10706;BME280;5404;42.656;23.336;2024-03-02T08:57:10;94280.28;;;7.91;80.04
10706;BME280;5404;42.656;23.336;2024-03-02T08:59:36;94272.03;;;8.02;78.93
10706;BME280;5404;42.656;23.336;2024-03-02T09:02:01;94274.81;;;8.25;78.20
10706;BME280;5404;42.656;23.336;2024-03-02T09:04:27;94267.41;;;8.29;78.30
10706;BME280;5404;42.656;23.336;2024-03-02T09:06:53;94241.06;;;8.26;77.82
10706;BME280;5404;42.656;23.336;2024-03-02T09:09:18;94276.25;;;8.90;77.36
10706;BME280;5404;42.656;23.336;2024-03-02T09:11:45;94269.34;;;8.86;74.46
10706;BME280;5404;42.656;23.336;2024-03-02T09:14:11;94275.44;;;8.93;73.98
10706;BME280;5404;42.656;23.336;2024-03-02T09:16:37;94285.34;;;8.80;73.93
10706;BME280;5404;42.656;23.336;2024-03-02T09:19:03;94285.19;;;8.64;73.94
10706;BME280;5404;42.656;23.336;2024-03-02T09:21:28;94291.22;;;8.75;74.08
10706;BME280;5404;42.656;23.336;2024-03-02T09:23:55;94288.38;;;8.59;73.27
10706;BME280;5404;42.656;23.336;2024-03-02T09:26:21;94296.09;;;8.60;74.69
10706;BME280;5404;42.656;23.336;2024-03-02T09:28:47;94280.66;;;8.54;73.58
10706;BME280;5404;42.656;23.336;2024-03-02T09:31:13;94289.88;;;8.60;72.99
10706;BME280;5404;42.656;23.336;2024-03-02T09:33:38;94290.91;;;8.43;73.37
10706;BME280;5404;42.656;23.336;2024-03-02T09:36:19;94286.72;;;8.38;73.59
10706;BME280;5404;42.656;23.336;2024-03-02T09:38:45;94293.66;;;8.39;74.24
10706;BME280;5404;42.656;23.336;2024-03-02T09:41:11;94296.84;;;8.61;74.24
10706;BME280;5404;42.656;23.336;2024-03-02T09:43:37;94292.31;;;8.54;73.76
10706;BME280;5404;42.656;23.336;2024-03-02T09:46:03;94293.56;;;8.46;73.98
10706;BME280;5404;42.656;23.336;2024-03-02T09:48:28;94292.50;;;8.40;73.97
10706;BME280;5404;42.656;23.336;2024-03-02T09:50:54;94300.63;;;8.40;75.15
10706;BME280;5404;42.656;23.336;2024-03-02T09:53:19;94297.16;;;8.40;76.58
10706;BME280;5404;42.656;23.336;2024-03-02T09:55:46;94300.59;;;8.44;76.08
10706;BME280;5404;42.656;23.336;2024-03-02T09:58:12;94296.66;;;8.48;76.85
10706;BME280;5404;42.656;23.336;2024-03-02T10:00:37;94301.13;;;8.32;77.58
10706;BME280;5404;42.656;23.336;2024-03-02T10:03:03;94229.97;;;7.86;77.70
10706;BME280;5404;42.656;23.336;2024-03-02T10:05:30;94300.31;;;8.35;78.84
10706;BME280;5404;42.656;23.336;2024-03-02T10:08:00;94299.84;;;8.09;78.53
10706;BME280;5404;42.656;23.336;2024-03-02T10:10:37;94292.28;;;7.90;78.60
10706;BME280;5404;42.656;23.336;2024-03-02T10:13:06;94296.19;;;7.89;78.57
10706;BME280;5404;42.656;23.336;2024-03-02T10:15:32;94294.59;;;7.92;79.36
10706;BME280;5404;42.656;23.336;2024-03-02T10:17:57;94300.34;;;7.97;79.77
10706;BME280;5404;42.656;23.336;2024-03-02T10:22:49;94302.44;;;7.86;80.93
10706;BME280;5404;42.656;23.336;2024-03-02T10:25:33;94289.78;;;7.72;80.70
10706;BME280;5404;42.656;23.336;2024-03-02T10:28:00;94295.53;;;7.78;81.68
10706;BME280;5404;42.656;23.336;2024-03-02T10:30:29;94295.84;;;7.87;80.55
10706;BME280;5404;42.656;23.336;2024-03-02T10:32:55;94298.16;;;7.85;80.80
10706;BME280;5404;42.656;23.336;2024-03-02T10:35:22;94304.75;;;7.88;79.74
10706;BME280;5404;42.656;23.336;2024-03-02T10:37:49;94295.09;;;7.83;80.00
10706;BME280;5404;42.656;23.336;2024-03-02T10:40:15;94292.81;;;7.78;80.60
10706;BME280;5404;42.656;23.336;2024-03-02T10:42:41;94297.16;;;7.72;81.29
10706;BME280;5404;42.656;23.336;2024-03-02T10:45:08;94299.41;;;7.77;80.97
10706;BME280;5404;42.656;23.336;2024-03-02T10:47:36;94294.91;;;7.63;80.80
10706;BME280;5404;42.656;23.336;2024-03-02T10:50:04;94293.75;;;7.61;80.68
10706;BME280;5404;42.656;23.336;2024-03-02T10:52:36;94290.72;;;7.59;81.30
10706;BME280;5404;42.656;23.336;2024-03-02T10:55:02;94289.59;;;7.53;81.07
10706;BME280;5404;42.656;23.336;2024-03-02T10:57:40;94279.19;;;7.47;81.59
10706;BME280;5404;42.656;23.336;2024-03-02T11:00:08;94278.78;;;7.53;81.10
10706;BME280;5404;42.656;23.336;2024-03-02T11:02:45;94284.84;;;7.64;81.41
10706;BME280;5404;42.656;23.336;2024-03-02T11:05:14;94243.94;;;7.47;80.74
10706;BME280;5404;42.656;23.336;2024-03-02T11:07:42;94278.69;;;7.60;81.00
10706;BME280;5404;42.656;23.336;2024-03-02T11:10:09;94275.59;;;7.58;81.45
10706;BME280;5404;42.656;23.336;2024-03-02T11:12:59;94284.84;;;7.64;81.43
10706;BME280;5404;42.656;23.336;2024-03-02T11:15:27;94270.19;;;7.58;81.67
10706;BME280;5404;42.656;23.336;2024-03-02T11:17:53;94277.41;;;7.68;82.14
10706;BME280;5404;42.656;23.336;2024-03-02T11:20:19;94272.84;;;7.61;81.19
10706;BME280;5404;42.656;23.336;2024-03-02T11:22:46;94271.38;;;7.53;81.79
10706;BME280;5404;42.656;23.336;2024-03-02T11:25:25;94278.78;;;7.53;81.58
10706;BME280;5404;42.656;23.336;2024-03-02T11:32:56;94280.28;;;7.54;81.79
10706;BME280;5404;42.656;23.336;2024-03-02T11:35:24;94268.66;;;7.53;81.82
10706;BME280;5404;42.656;23.336;2024-03-02T11:37:51;94268.19;;;7.62;81.48
10706;BME280;5404;42.656;23.336;2024-03-02T11:40:22;94288.00;;;7.59;80.45
10706;BME280;5404;42.656;23.336;2024-03-02T11:42:47;94271.69;;;7.62;80.92
10706;BME280;5404;42.656;23.336;2024-03-02T11:45:16;94273.19;;;7.67;81.63
10706;BME280;5404;42.656;23.336;2024-03-02T11:47:46;94268.56;;;7.64;80.81
10706;BME280;5404;42.656;23.336;2024-03-02T11:50:15;94270.88;;;7.65;81.54
10706;BME280;5404;42.656;23.336;2024-03-02T11:52:41;94279.41;;;7.64;81.65
10706;BME280;5404;42.656;23.336;2024-03-02T11:55:08;94269.41;;;7.57;81.42
10706;BME280;5404;42.656;23.336;2024-03-02T11:57:35;94277.78;;;7.70;82.26
10706;BME280;5404;42.656;23.336;2024-03-02T12:00:00;94269.41;;;7.57;81.04
10706;BME280;5404;42.656;23.336;2024-03-02T12:02:28;94269.88;;;7.52;81.71
10706;BME280;5404;42.656;23.336;2024-03-02T12:04:54;94271.75;;;7.55;80.73
10706;BME280;5404;42.656;23.336;2024-03-02T12:07:22;94273.28;;;7.56;81.22
10706;BME280;5404;42.656;23.336;2024-03-02T12:09:49;94273.28;;;7.56;81.22
10706;BME280;5404;42.656;23.336;2024-03-02T12:12:15;94268.00;;;7.45;81.26
10706;BME280;5404;42.656;23.336;2024-03-02T12:14:51;94272.44;;;7.63;80.28
10706;BME280;5404;42.656;23.336;2024-03-02T12:17:17;94273.63;;;7.62;80.16
10706;BME280;5404;42.656;23.336;2024-03-02T12:19:43;94266.94;;;7.73;80.62
10706;BME280;5404;42.656;23.336;2024-03-02T12:22:09;94270.50;;;7.67;81.08
10706;BME280;5404;42.656;23.336;2024-03-02T12:24:34;94270.84;;;7.69;81.65
10706;BME280;5404;42.656;23.336;2024-03-02T12:27:00;94277.78;;;7.73;80.83
10706;BME280;5404;42.656;23.336;2024-03-02T12:29:26;94270.66;;;7.83;80.98
10706;BME280;5404;42.656;23.336;2024-03-02T12:31:52;94249.03;;;7.79;80.64
10706;BME280;5404;42.656;23.336;2024-03-02T12:34:18;94264.84;;;7.84;80.04
10706;BME280;5404;42.656;23.336;2024-03-02T12:36:45;94268.34;;;7.85;79.86
10706;BME280;5404;42.656;23.336;2024-03-02T12:39:13;94268.34;;;7.85;80.09
10706;BME280;5404;42.656;23.336;2024-03-02T12:41:39;94270.66;;;7.86;79.40
10706;BME280;5404;42.656;23.336;2024-03-02T12:44:05;94270.16;;;7.95;79.61
10706;BME280;5404;42.656;23.336;2024-03-02T12:46:31;94260.44;;;7.98;79.43
10706;BME280;5404;42.656;23.336;2024-03-02T12:48:58;94267.63;;;8.11;78.82
10706;BME280;5404;42.656;23.336;2024-03-02T12:51:24;94274.31;;;8.03;78.14
10706;BME280;5404;42.656;23.336;2024-03-02T12:53:59;94268.72;;;8.17;78.26
10706;BME280;5404;42.656;23.336;2024-03-02T12:56:25;94270.25;;;8.18;77.80
10706;BME280;5404;42.656;23.336;2024-03-02T12:58:57;94277.06;;;8.34;78.68
10706;BME280;5404;42.656;23.336;2024-03-02T13:01:23;94271.06;;;8.46;77.27
10706;BME280;5404;42.656;23.336;2024-03-02T13:03:49;94203.16;;;7.92;76.99
10706;BME280;5404;42.656;23.336;2024-03-02T13:06:16;94273.06;;;8.45;77.51
10706;BME280;5404;42.656;23.336;2024-03-02T13:08:42;94276.88;;;8.48;77.97
10706;BME280;5404;42.656;23.336;2024-03-02T13:11:08;94272.59;;;8.50;77.25
10706;BME280;5404;42.656;23.336;2024-03-02T13:13:33;94271.03;;;8.49;76.73
10706;BME280;5404;42.656;23.336;2024-03-02T13:16:00;94274.63;;;8.43;76.28